createdAt,value
2019-05-21T00:01:58.628Z,60344.04
2019-05-21T00:06:54.549Z,60326.75
2019-05-21T00:11:50.478Z,60312.07
2019-05-21T00:16:46.399Z,60327.81
2019-05-21T00:21:42.325Z,60292.05
2019-05-21T00:26:38.388Z,60301.84
2019-05-21T00:32:11.807Z,60327.34
2019-05-21T00:37:45.483Z,60337.95
2019-05-21T00:42:43.005Z,60284.54
2019-05-21T00:47:39.161Z,60333.89
2019-05-21T00:52:35.081Z,60291.35
2019-05-21T00:57:31.009Z,60349.97
2019-05-21T01:02:26.968Z,60303.01
2019-05-21T01:07:22.941Z,60307.17
2019-05-21T01:12:18.914Z,60298.25
2019-05-21T01:17:14.845Z,60286.08
2019-05-21T01:22:10.778Z,60237.12
2019-05-21T01:27:06.696Z,60249.15
2019-05-21T01:32:03.289Z,60294.43
2019-05-21T01:36:59.451Z,60301.34
2019-05-21T01:41:55.377Z,60271.43
2019-05-21T01:46:51.327Z,60312.05
2019-05-21T01:51:47.250Z,60277.28
2019-05-21T01:56:43.249Z,60260.47
2019-05-21T02:01:39.146Z,60281.67
2019-05-21T02:06:35.072Z,60283.21
2019-05-21T02:11:30.992Z,60284.87
2019-05-21T02:16:26.910Z,60272.61
2019-05-21T02:21:22.839Z,60248.42
2019-05-21T02:26:18.755Z,60255.09
2019-05-21T02:31:14.696Z,60263.53
2019-05-21T02:36:10.632Z,60267.83
2019-05-21T02:41:06.657Z,60270.92
2019-05-21T02:46:02.740Z,60244.36
2019-05-21T02:50:58.647Z,60277.46
2019-05-21T02:55:54.582Z,60247.92
2019-05-21T03:00:52.418Z,60259.71
2019-05-21T03:05:48.442Z,60223.15
2019-05-21T03:10:44.564Z,60251.59
2019-05-21T03:15:40.473Z,60227.66
2019-05-21T03:20:36.429Z,60206.22
2019-05-21T03:25:32.348Z,60240.50
2019-05-21T03:30:28.376Z,60204.67
2019-05-21T03:35:24.293Z,60219.91
2019-05-21T03:40:20.642Z,60240.26
2019-05-21T03:45:16.796Z,60194.78
2019-05-21T03:50:12.822Z,60178.95
2019-05-21T03:55:08.832Z,60209.53
2019-05-21T04:00:08.983Z,60213.95
2019-05-21T04:05:05.100Z,60197.62
2019-05-21T04:10:01.044Z,60160.62
2019-05-21T04:15:07.861Z,60171.44
2019-05-21T04:20:05.410Z,60171.68
2019-05-21T04:25:01.478Z,60182.38
2019-05-21T04:29:57.393Z,60192.25
2019-05-21T04:34:53.318Z,60176.67
2019-05-21T04:39:49.238Z,60203.08
2019-05-21T04:44:45.190Z,60206.79
2019-05-21T04:50:05.874Z,60219.87
2019-05-21T04:55:03.204Z,60217.75
2019-05-21T04:59:59.152Z,60203.82
2019-05-21T05:04:55.079Z,60221.42
2019-05-21T05:09:56.736Z,60196.20
2019-05-21T05:14:52.819Z,60198.12
2019-05-21T05:19:48.750Z,60225.24
2019-05-21T05:24:44.638Z,60200.25
2019-05-21T05:29:40.566Z,60172.64
2019-05-21T05:34:36.491Z,60215.37
2019-05-21T05:39:33.165Z,60174.79
2019-05-21T05:44:29.177Z,60224.65
2019-05-21T05:49:33.071Z,60203.12
2019-05-21T05:54:28.996Z,60240.95
2019-05-21T05:59:24.922Z,60183.83
2019-05-21T06:04:21.005Z,60251.68
2019-05-21T06:09:17.593Z,60243.33
2019-05-21T06:14:13.580Z,60215.02
2019-05-21T06:19:09.515Z,60215.26
2019-05-21T06:24:05.450Z,60231.21
2019-05-21T06:29:01.376Z,60235.26
2019-05-21T06:33:57.310Z,60284.01
2019-05-21T06:38:57.137Z,60265.55
2019-05-21T06:43:53.201Z,60243.52
2019-05-21T06:48:49.910Z,60259.47
2019-05-21T06:53:46.340Z,60269.60
2019-05-21T06:58:42.267Z,60271.26
2019-05-21T07:03:38.195Z,60306.18
2019-05-21T07:08:43.370Z,60318.33
2019-05-21T07:13:39.412Z,60276.88
2019-05-21T07:18:35.325Z,60294.39
2019-05-21T07:23:31.249Z,60300.12
2019-05-21T07:28:27.174Z,60285.82
2019-05-21T07:33:23.103Z,60289.15
2019-05-21T07:38:19.908Z,60279.97
2019-05-21T07:43:15.939Z,60298.70
2019-05-21T07:48:11.896Z,60288.11
2019-05-21T07:53:07.825Z,60302.93
2019-05-21T07:58:03.856Z,60293.64
2019-05-21T08:02:59.890Z,60312.74
2019-05-21T08:07:55.822Z,60254.15
2019-05-21T08:12:51.748Z,60309.15
2019-05-21T08:17:47.789Z,60350.38
2019-05-21T08:22:43.737Z,60338.05
2019-05-21T08:27:39.680Z,60293.36
2019-05-21T08:32:35.592Z,60361.18
2019-05-21T08:37:31.553Z,60320.38
2019-05-21T08:42:27.585Z,60341.74
2019-05-21T08:47:23.575Z,60381.45
2019-05-21T08:52:19.834Z,60350.92
2019-05-21T08:57:15.937Z,60352.45
2019-05-21T09:02:11.866Z,60292.96
2019-05-21T09:07:07.899Z,60267.72
2019-05-21T09:12:04.088Z,60343.71
2019-05-21T09:17:01.667Z,60310.73
2019-05-21T09:21:58.625Z,60265.21
2019-05-21T09:26:56.473Z,60269.61
2019-05-21T09:31:54.979Z,60299.00
2019-05-21T09:36:52.374Z,60273.41
2019-05-21T09:41:48.416Z,60297.45
2019-05-21T09:46:44.478Z,60304.73
2019-05-21T09:51:40.410Z,60325.59
2019-05-21T09:56:36.844Z,60278.66
2019-05-21T10:01:40.837Z,60304.02
2019-05-21T10:06:36.773Z,60343.08
2019-05-21T10:11:32.696Z,60335.34
2019-05-21T10:16:28.627Z,60296.03
2019-05-21T10:21:24.662Z,60275.68
2019-05-21T10:26:20.581Z,60288.75
2019-05-21T10:31:17.114Z,60274.95
2019-05-21T10:36:13.145Z,60287.93
2019-05-21T10:41:09.100Z,60252.90
2019-05-21T10:46:05.146Z,60275.16
2019-05-21T10:51:01.173Z,60267.79
2019-05-21T10:55:57.202Z,60238.37
2019-05-21T11:00:55.515Z,60278.62
2019-05-21T11:06:08.968Z,60285.20
2019-05-21T11:10:51.263Z,60292.21
2019-05-21T11:15:47.246Z,60284.01
2019-05-21T11:20:43.175Z,60286.83
2019-05-21T11:25:39.215Z,60291.37
2019-05-21T11:30:35.143Z,60273.24
2019-05-21T11:35:31.269Z,60255.02
2019-05-21T11:40:27.924Z,60227.74
2019-05-21T11:45:32.090Z,60244.75
2019-05-21T11:50:22.173Z,60226.40
2019-05-21T11:55:18.099Z,60229.02
2019-05-21T12:00:14.635Z,60239.36
2019-05-21T12:05:10.705Z,60235.11
2019-05-21T12:10:07.451Z,60232.22
2019-05-21T12:15:06.740Z,60188.45
2019-05-21T12:20:06.676Z,60224.96
2019-05-21T12:25:03.984Z,60217.59
2019-05-21T12:29:59.999Z,60212.73
2019-05-21T12:34:55.962Z,60201.41
2019-05-21T12:39:51.896Z,60182.63
2019-05-21T12:44:47.855Z,60232.73
2019-05-21T12:49:43.787Z,60242.39
2019-05-21T12:54:46.540Z,60274.30
2019-05-21T12:59:42.586Z,60240.01
2019-05-21T13:04:38.583Z,60234.77
2019-05-21T13:09:37.423Z,60247.35
2019-05-21T13:14:35.178Z,60254.62
2019-05-21T13:19:31.301Z,60225.20
2019-05-21T13:24:28.039Z,60192.13
2019-05-21T13:29:23.973Z,60205.46
2019-05-21T13:34:19.927Z,60214.96
2019-05-21T13:39:18.287Z,60220.78
2019-05-21T13:44:14.413Z,60205.22
2019-05-21T13:49:10.347Z,60197.60
2019-05-21T13:54:06.373Z,60216.63
2019-05-21T13:59:02.527Z,60242.13
2019-05-21T14:03:58.485Z,60307.17
2019-05-21T14:08:58.469Z,60298.30
2019-05-21T14:13:54.514Z,60333.01
2019-05-21T14:18:50.458Z,60390.23
2019-05-21T14:23:46.395Z,60406.97
2019-05-21T14:28:42.333Z,60401.71
2019-05-21T14:33:38.391Z,60383.24
2019-05-21T14:38:44.905Z,60394.21
2019-05-21T14:43:40.996Z,60458.49
2019-05-21T14:48:36.985Z,60493.77
2019-05-21T14:53:32.917Z,60480.10
2019-05-21T14:58:28.843Z,60509.78
2019-05-21T15:03:25.741Z,60492.96
2019-05-21T15:08:24.609Z,60487.13
2019-05-21T15:13:20.654Z,60485.94
2019-05-21T15:18:21.348Z,60506.71
2019-05-21T15:23:14.558Z,60486.29
2019-05-21T15:28:10.484Z,60523.68
2019-05-21T15:33:06.620Z,60502.64
2019-05-21T15:38:02.651Z,60468.41
2019-05-21T15:42:58.575Z,60479.96
2019-05-21T15:47:54.531Z,60496.79
2019-05-21T15:52:50.454Z,60509.21
2019-05-21T15:57:46.385Z,60512.29
2019-05-21T16:02:42.350Z,60501.46
2019-05-21T16:07:38.388Z,60494.91
2019-05-21T16:12:34.316Z,60527.38
2019-05-21T16:17:30.256Z,60555.61
2019-05-21T16:22:26.171Z,60548.54
2019-05-21T16:27:22.115Z,60539.24
2019-05-21T16:32:18.043Z,60548.20
2019-05-21T16:37:14.137Z,60578.31
2019-05-21T16:42:10.065Z,60615.55
2019-05-21T16:47:06.031Z,60505.91
2019-05-21T16:52:02.051Z,60549.59
2019-05-21T16:56:57.977Z,60507.81
2019-05-21T17:01:53.902Z,60587.05
2019-05-21T17:06:49.871Z,60546.39
2019-05-21T17:11:59.171Z,60537.76
2019-05-21T17:16:43.740Z,60508.97
2019-05-21T17:21:39.723Z,60560.06
2019-05-21T17:26:35.651Z,60511.73
2019-05-21T17:31:31.649Z,60490.38
2019-05-21T17:36:27.575Z,60487.36
2019-05-21T17:41:23.579Z,60498.09
2019-05-21T17:46:19.536Z,60504.53
2019-05-21T17:51:15.466Z,60477.93
2019-05-21T17:56:11.599Z,60457.14
2019-05-21T18:01:09.452Z,60460.22
2019-05-21T18:06:06.723Z,60459.74
2019-05-21T18:11:03.092Z,60470.22
2019-05-21T18:15:59.423Z,60441.59
2019-05-21T18:20:55.525Z,60456.83
2019-05-21T18:25:51.551Z,60458.49
2019-05-21T18:30:47.777Z,60428.80
2019-05-21T18:35:45.433Z,60431.05
2019-05-21T18:40:41.639Z,60417.33
2019-05-21T18:45:37.678Z,60430.55
2019-05-21T18:50:36.608Z,60364.51
2019-05-21T18:55:31.553Z,60369.50
2019-05-21T19:00:27.481Z,60358.54
2019-05-21T19:05:23.410Z,60396.77
2019-05-21T19:10:19.340Z,60365.42
2019-05-21T19:15:15.474Z,60375.87
2019-05-21T19:20:12.194Z,60368.85
2019-05-21T19:25:08.222Z,60357.52
2019-05-21T19:30:05.353Z,60356.82
2019-05-21T19:35:01.394Z,60325.47
2019-05-21T19:39:57.409Z,60382.99
2019-05-21T19:44:53.364Z,60308.65
2019-05-21T19:49:49.286Z,60265.27
2019-05-21T19:54:45.212Z,60344.56
2019-05-21T19:59:41.145Z,60329.32
2019-05-21T20:04:37.094Z,60338.36
2019-05-21T20:09:34.702Z,60280.48
2019-05-21T20:14:30.622Z,60295.69
2019-05-21T20:19:27.149Z,60272.84
2019-05-21T20:24:23.579Z,60281.75
2019-05-21T20:29:20.022Z,60293.29
2019-05-21T20:34:15.999Z,60268.05
2019-05-21T20:39:14.395Z,60244.73
2019-05-21T20:44:14.977Z,60228.67
2019-05-21T20:49:11.405Z,60283.27
2019-05-21T20:54:10.040Z,60261.87
2019-05-21T20:59:06.012Z,60201.07
2019-05-21T21:04:02.848Z,60243.53
2019-05-21T21:09:01.847Z,60246.13
2019-05-21T21:13:57.879Z,60211.15
2019-05-21T21:18:54.115Z,60247.44
2019-05-21T21:23:51.714Z,60288.48
2019-05-21T21:28:47.768Z,60228.85
2019-05-21T21:33:43.844Z,60242.79
2019-05-21T21:38:41.883Z,60218.04
2019-05-21T21:43:40.015Z,60223.38
2019-05-21T21:48:36.749Z,60216.95
2019-05-21T21:53:33.074Z,60274.16
2019-05-21T21:58:29.130Z,60230.98
2019-05-21T22:03:26.658Z,60245.03
2019-05-21T22:08:24.066Z,60237.54
2019-05-21T22:13:20.493Z,60251.09
2019-05-21T22:18:17.231Z,60243.00
2019-05-21T22:23:13.565Z,60202.66
2019-05-21T22:28:09.598Z,60220.87
2019-05-21T22:33:06.451Z,60218.48
2019-05-21T22:38:02.379Z,60211.93
2019-05-21T22:42:58.503Z,60233.71
2019-05-21T22:47:54.559Z,60194.34
2019-05-21T22:52:50.491Z,60217.66
2019-05-21T22:57:46.448Z,60211.82
2019-05-21T23:02:44.231Z,60209.45
2019-05-21T23:07:40.161Z,60223.94
2019-05-21T23:12:36.496Z,60191.85
2019-05-21T23:17:32.832Z,60198.50
2019-05-21T23:22:28.963Z,60223.70
2019-05-21T23:27:24.989Z,60230.72
2019-05-21T23:32:21.028Z,60237.01
2019-05-21T23:37:18.855Z,60249.27
2019-05-21T23:42:28.605Z,60209.42
2019-05-21T23:47:14.763Z,60191.09
2019-05-21T23:52:10.902Z,60222.84
2019-05-21T23:57:08.744Z,60208.21
